createdAt,value
2022-12-19T00:01:16.966Z,11.07
2022-12-19T00:03:21.948Z,11.10
2022-12-19T00:05:28.588Z,11.21
2022-12-19T00:07:32.689Z,11.27
2022-12-19T00:09:36.717Z,11.35
2022-12-19T00:11:41.426Z,11.34
2022-12-19T00:13:46.167Z,11.31
2022-12-19T00:15:50.089Z,11.27
2022-12-19T00:17:54.293Z,11.28
2022-12-19T00:19:58.640Z,11.28
2022-12-19T00:22:08.266Z,11.29
2022-12-19T00:24:20.441Z,11.29
2022-12-19T00:26:27.798Z,11.28
2022-12-19T00:28:31.527Z,11.28
2022-12-19T00:30:35.724Z,11.29
2022-12-19T00:32:40.450Z,11.32
2022-12-19T00:34:44.867Z,11.33
2022-12-19T00:36:49.387Z,11.41
2022-12-19T00:38:56.426Z,11.47
2022-12-19T00:41:18.088Z,11.47
2022-12-19T00:43:27.978Z,11.44
2022-12-19T00:45:32.258Z,11.40
2022-12-19T00:47:43.431Z,11.38
2022-12-19T00:49:46.849Z,11.39
2022-12-19T00:51:59.358Z,11.39
2022-12-19T00:54:07.376Z,11.39
2022-12-19T00:56:18.718Z,11.41
2022-12-19T00:58:32.200Z,11.44
2022-12-19T01:00:59.606Z,11.44
2022-12-19T01:03:05.661Z,11.45
2022-12-19T01:05:10.874Z,11.47
2022-12-19T01:07:20.277Z,11.45
2022-12-19T01:09:28.691Z,11.46
2022-12-19T01:11:50.930Z,11.44
2022-12-19T01:13:55.799Z,11.43
2022-12-19T01:16:08.778Z,11.51
2022-12-19T01:18:14.453Z,11.54
2022-12-19T01:20:29.667Z,11.59
2022-12-19T01:22:34.918Z,11.63
2022-12-19T01:24:45.157Z,11.66
2022-12-19T01:26:52.127Z,11.65
2022-12-19T01:28:56.435Z,11.62
2022-12-19T01:31:00.355Z,11.56
2022-12-19T01:33:06.210Z,11.55
2022-12-19T01:35:17.375Z,11.55
2022-12-19T01:37:28.273Z,11.53
2022-12-19T01:39:41.560Z,11.54
2022-12-19T01:41:51.637Z,11.50
2022-12-19T01:43:58.600Z,11.46
2022-12-19T01:46:04.175Z,11.50
2022-12-19T01:48:21.514Z,11.56
2022-12-19T01:50:29.722Z,11.60
2022-12-19T01:52:34.139Z,11.62
2022-12-19T01:54:41.322Z,11.62
2022-12-19T01:56:51.454Z,11.64
2022-12-19T01:59:06.498Z,11.65
2022-12-19T02:01:13.603Z,11.66
2022-12-19T02:03:24.008Z,11.67
2022-12-19T02:05:33.488Z,11.67
2022-12-19T02:07:38.605Z,11.68
2022-12-19T02:09:43.750Z,11.72
2022-12-19T02:11:52.702Z,11.76
2022-12-19T02:13:56.339Z,11.77
2022-12-19T02:16:07.285Z,11.78
2022-12-19T02:18:19.459Z,11.79
2022-12-19T02:20:55.311Z,11.80
2022-12-19T02:23:30.996Z,11.80
2022-12-19T02:26:05.889Z,11.81
2022-12-19T02:28:46.782Z,11.83
2022-12-19T02:31:16.811Z,11.85
2022-12-19T02:33:33.967Z,11.87
2022-12-19T02:35:44.105Z,11.89
2022-12-19T02:37:54.463Z,11.88
2022-12-19T02:40:03.940Z,11.85
2022-12-19T02:42:12.676Z,11.82
2022-12-19T02:44:22.141Z,11.81
2022-12-19T02:46:28.129Z,11.81
2022-12-19T02:48:32.786Z,11.80
2022-12-19T02:50:41.603Z,11.78
2022-12-19T02:52:50.130Z,11.76
2022-12-19T02:54:57.613Z,11.79
2022-12-19T02:57:09.836Z,11.81
2022-12-19T02:59:26.070Z,11.79
2022-12-19T03:01:45.887Z,11.79
2022-12-19T03:04:00.098Z,11.80
2022-12-19T03:06:10.334Z,11.81
2022-12-19T03:08:25.423Z,11.86
2022-12-19T03:10:35.859Z,11.87
2022-12-19T03:12:46.791Z,11.89
2022-12-19T03:14:51.445Z,11.88
2022-12-19T03:16:56.486Z,11.87
2022-12-19T03:19:00.007Z,11.89
2022-12-19T03:21:10.157Z,11.93
2022-12-19T03:23:14.467Z,11.96
2022-12-19T03:25:18.124Z,11.95
2022-12-19T03:27:27.668Z,11.96
2022-12-19T03:29:34.157Z,11.96
2022-12-19T03:31:40.645Z,11.96
2022-12-19T03:33:49.411Z,11.97
2022-12-19T03:35:55.616Z,11.98
2022-12-19T03:38:03.106Z,11.98
2022-12-19T03:40:12.226Z,11.99
2022-12-19T03:42:35.512Z,11.99
2022-12-19T03:44:43.219Z,11.98
2022-12-19T03:46:55.899Z,11.99
2022-12-19T03:49:00.691Z,12.00
2022-12-19T03:51:14.928Z,12.01
2022-12-19T03:53:29.458Z,12.01
2022-12-19T03:55:40.062Z,12.04
2022-12-19T03:57:47.896Z,12.06
2022-12-19T03:59:53.913Z,12.07
2022-12-19T04:01:59.633Z,12.06
2022-12-19T04:04:07.345Z,12.06
2022-12-19T04:06:12.986Z,12.07
2022-12-19T04:08:17.310Z,12.09
2022-12-19T04:10:23.897Z,12.10
2022-12-19T04:12:33.409Z,12.10
2022-12-19T04:14:39.880Z,12.10
2022-12-19T04:16:49.361Z,12.12
2022-12-19T04:18:57.735Z,12.12
2022-12-19T04:21:06.949Z,12.11
2022-12-19T04:23:17.902Z,12.11
2022-12-19T04:25:29.582Z,12.10
2022-12-19T04:27:35.593Z,12.10
2022-12-19T04:29:40.704Z,12.09
2022-12-19T04:31:45.652Z,12.09
2022-12-19T04:33:49.038Z,12.06
2022-12-19T04:35:52.457Z,12.06
2022-12-19T04:37:57.283Z,12.06
2022-12-19T04:40:00.983Z,12.09
2022-12-19T04:42:04.335Z,12.10
2022-12-19T04:44:08.142Z,12.10
2022-12-19T04:46:11.555Z,12.13
2022-12-19T04:48:14.979Z,12.13
2022-12-19T04:50:18.478Z,12.12
2022-12-19T04:52:21.882Z,12.12
2022-12-19T04:54:26.558Z,12.12
2022-12-19T04:56:30.673Z,12.09
2022-12-19T04:58:34.956Z,12.09
2022-12-19T05:00:38.314Z,12.14
2022-12-19T05:02:41.866Z,12.18
2022-12-19T05:04:45.339Z,12.19
2022-12-19T05:06:48.844Z,12.17
2022-12-19T05:08:52.274Z,12.15
2022-12-19T05:11:00.718Z,12.18
2022-12-19T05:13:04.235Z,12.20
2022-12-19T05:15:08.721Z,12.22
2022-12-19T05:17:12.113Z,12.23
2022-12-19T05:19:15.983Z,12.23
2022-12-19T05:21:19.446Z,12.23
2022-12-19T05:23:23.404Z,12.21
2022-12-19T05:25:26.918Z,12.23
2022-12-19T05:27:31.620Z,12.22
2022-12-19T05:29:35.323Z,12.22
2022-12-19T05:31:38.831Z,12.18
2022-12-19T05:33:43.562Z,12.17
2022-12-19T05:35:47.128Z,12.14
2022-12-19T05:37:50.519Z,12.11
2022-12-19T05:39:53.925Z,12.08
2022-12-19T05:41:57.424Z,12.06
2022-12-19T05:44:03.036Z,12.08
2022-12-19T05:46:07.755Z,12.09
2022-12-19T05:48:11.193Z,12.10
2022-12-19T05:50:14.971Z,12.12
2022-12-19T05:52:18.252Z,12.13
2022-12-19T05:54:21.948Z,12.13
2022-12-19T05:56:25.331Z,12.13
2022-12-19T05:58:28.642Z,12.16
2022-12-19T06:00:33.670Z,12.19
2022-12-19T06:02:37.171Z,12.22
2022-12-19T06:04:40.660Z,12.22
2022-12-19T06:06:44.072Z,12.29
2022-12-19T06:08:48.084Z,12.30
2022-12-19T06:10:51.499Z,12.32
2022-12-19T06:12:54.954Z,12.32
2022-12-19T06:14:58.229Z,12.32
2022-12-19T06:17:03.108Z,12.28
2022-12-19T06:19:06.544Z,12.29
2022-12-19T06:21:13.319Z,12.32
2022-12-19T06:23:16.707Z,12.32
2022-12-19T06:25:20.108Z,12.31
2022-12-19T06:27:23.777Z,12.33
2022-12-19T06:29:27.066Z,12.32
2022-12-19T06:31:30.686Z,12.32
2022-12-19T06:33:35.661Z,12.29
2022-12-19T06:35:39.094Z,12.27
2022-12-19T06:37:42.460Z,12.25
2022-12-19T06:39:45.844Z,12.28
2022-12-19T06:42:07.072Z,12.29
2022-12-19T06:44:12.253Z,12.29
2022-12-19T06:46:16.247Z,12.32
2022-12-19T06:48:19.895Z,12.32
2022-12-19T06:50:25.859Z,12.32
2022-12-19T06:52:29.300Z,12.31
2022-12-19T06:54:33.005Z,12.30
2022-12-19T06:56:37.557Z,12.28
2022-12-19T06:58:41.084Z,12.27
2022-12-19T07:00:44.624Z,12.25
2022-12-19T07:02:51.760Z,12.22
2022-12-19T07:05:03.132Z,12.22
2022-12-19T07:07:09.376Z,12.25
2022-12-19T07:09:12.742Z,12.27
2022-12-19T07:11:16.183Z,12.28
2022-12-19T07:13:19.559Z,12.28
2022-12-19T07:15:23.080Z,12.29
2022-12-19T07:17:28.413Z,12.29
2022-12-19T07:19:33.197Z,12.29
2022-12-19T07:21:36.832Z,12.28
2022-12-19T07:23:42.638Z,12.26
2022-12-19T07:25:46.071Z,12.24
2022-12-19T07:27:49.980Z,12.24
2022-12-19T07:29:53.397Z,12.26
2022-12-19T07:31:56.789Z,12.26
2022-12-19T07:34:00.217Z,12.27
2022-12-19T07:36:04.389Z,12.30
2022-12-19T07:38:08.786Z,12.29
2022-12-19T07:40:14.137Z,12.31
2022-12-19T07:42:17.708Z,12.31
2022-12-19T07:44:22.035Z,12.33
2022-12-19T07:46:26.084Z,12.34
2022-12-19T07:48:32.172Z,12.34
2022-12-19T07:50:35.972Z,12.35
2022-12-19T07:52:40.000Z,12.41
2022-12-19T07:54:44.007Z,12.43
2022-12-19T07:56:49.493Z,12.45
2022-12-19T07:58:53.226Z,12.48
2022-12-19T08:00:58.859Z,12.50
2022-12-19T08:03:05.493Z,12.52
2022-12-19T08:05:13.196Z,12.53
2022-12-19T08:07:17.369Z,12.55
2022-12-19T08:09:21.427Z,12.52
2022-12-19T08:11:30.185Z,12.50
2022-12-19T08:13:40.787Z,12.50
2022-12-19T08:15:49.497Z,12.52
2022-12-19T08:17:55.732Z,12.50
2022-12-19T08:20:00.756Z,12.51
2022-12-19T08:22:05.031Z,12.51
2022-12-19T08:24:09.714Z,12.55
2022-12-19T08:26:16.907Z,12.57
2022-12-19T08:28:21.498Z,12.59
2022-12-19T08:30:27.282Z,12.61
2022-12-19T08:32:31.600Z,12.60
2022-12-19T08:34:36.310Z,12.62
2022-12-19T08:36:40.594Z,12.61
2022-12-19T08:38:45.462Z,12.61
2022-12-19T08:40:55.096Z,12.61
2022-12-19T08:42:59.400Z,12.60
2022-12-19T08:45:03.523Z,12.59
2022-12-19T08:47:09.875Z,12.58
2022-12-19T08:49:14.368Z,12.60
2022-12-19T08:51:19.117Z,12.61
2022-12-19T08:53:26.428Z,12.63
2022-12-19T08:55:31.203Z,12.63
2022-12-19T08:57:35.267Z,12.63
2022-12-19T08:59:39.701Z,12.63
2022-12-19T09:01:45.184Z,12.64
2022-12-19T09:05:36.939Z,12.67
2022-12-19T09:06:17.886Z,12.70
2022-12-19T09:08:23.731Z,12.73
2022-12-19T09:10:28.137Z,12.76
2022-12-19T09:12:32.572Z,12.79
2022-12-19T09:14:36.828Z,12.81
2022-12-19T09:16:41.270Z,12.84
2022-12-19T09:18:48.818Z,12.86
2022-12-19T09:20:57.402Z,12.86
2022-12-19T09:23:01.363Z,12.89
2022-12-19T09:25:06.057Z,12.90
2022-12-19T09:27:11.784Z,12.94
2022-12-19T09:29:20.386Z,12.95
2022-12-19T09:31:27.662Z,12.94
2022-12-19T09:33:41.243Z,12.92
2022-12-19T09:35:51.903Z,12.91
2022-12-19T09:38:00.516Z,12.90
2022-12-19T09:40:05.259Z,12.90
2022-12-19T09:42:44.966Z,12.88
2022-12-19T09:45:02.764Z,12.88
2022-12-19T09:47:14.598Z,12.94
2022-12-19T09:49:22.979Z,13.00
2022-12-19T09:51:36.118Z,13.04
2022-12-19T09:53:54.367Z,13.07
2022-12-19T09:56:01.437Z,13.09
2022-12-19T09:58:13.888Z,13.11
2022-12-19T10:00:21.830Z,13.13
2022-12-19T10:02:39.284Z,13.15
2022-12-19T10:04:52.173Z,13.15
2022-12-19T10:07:18.576Z,13.17
2022-12-19T10:11:40.853Z,13.16
2022-12-19T10:12:38.878Z,13.19
2022-12-19T10:14:57.396Z,13.21
2022-12-19T10:17:24.159Z,13.20
2022-12-19T10:19:40.332Z,13.19
2022-12-19T10:22:17.708Z,13.17
2022-12-19T10:24:35.887Z,13.16
2022-12-19T10:26:47.193Z,13.11
2022-12-19T10:29:22.528Z,13.07
2022-12-19T10:31:35.911Z,13.01
2022-12-19T10:33:48.296Z,12.95
2022-12-19T10:36:02.109Z,12.88
2022-12-19T10:38:23.631Z,12.83
2022-12-19T10:40:36.767Z,12.77
2022-12-19T10:42:51.453Z,12.78
2022-12-19T10:44:58.861Z,12.81
2022-12-19T10:47:03.978Z,12.91
2022-12-19T10:49:17.342Z,12.98
2022-12-19T10:51:27.363Z,13.01
2022-12-19T10:53:33.562Z,13.02
2022-12-19T10:55:48.116Z,13.02
2022-12-19T10:57:52.959Z,13.02
2022-12-19T11:00:04.204Z,13.01
2022-12-19T11:02:28.539Z,13.01
2022-12-19T11:04:35.395Z,12.97
2022-12-19T11:06:48.492Z,12.95
2022-12-19T11:08:53.532Z,12.95
2022-12-19T11:14:14.712Z,12.95
2022-12-19T11:18:35.145Z,12.91
2022-12-19T11:21:58.811Z,12.89
2022-12-19T11:28:34.544Z,12.85
2022-12-19T11:29:29.884Z,12.84
2022-12-19T11:30:09.924Z,12.85
2022-12-19T11:30:35.208Z,12.81
2022-12-19T11:30:38.370Z,12.84
2022-12-19T11:31:51.429Z,12.76
2022-12-19T11:33:25.968Z,12.73
2022-12-19T11:35:35.891Z,12.68
2022-12-19T11:37:49.039Z,12.64
2022-12-19T11:39:57.535Z,12.60
2022-12-19T11:42:11.371Z,12.58
2022-12-19T11:44:21.799Z,12.58
2022-12-19T11:46:40.006Z,12.62
2022-12-19T11:48:49.840Z,12.67
2022-12-19T11:51:01.081Z,12.80
2022-12-19T11:53:19.622Z,12.92
2022-12-19T11:55:28.499Z,13.03
2022-12-19T11:57:34.809Z,13.10
2022-12-19T11:59:42.197Z,13.17
2022-12-19T12:02:00.526Z,13.25
2022-12-19T12:04:35.396Z,13.29
2022-12-19T12:06:48.235Z,13.27
2022-12-19T12:11:45.085Z,13.25
2022-12-19T12:19:52.161Z,13.26
2022-12-19T12:20:07.803Z,13.26
2022-12-19T12:24:51.000Z,13.20
2022-12-19T12:26:36.130Z,13.21
2022-12-19T12:31:17.625Z,13.36
2022-12-19T12:31:26.378Z,13.41
2022-12-19T12:31:40.359Z,13.46
2022-12-19T12:31:45.126Z,13.49
2022-12-19T12:35:28.678Z,13.46
2022-12-19T12:38:23.438Z,13.39
2022-12-19T12:40:44.293Z,13.35
2022-12-19T12:43:00.516Z,13.31
2022-12-19T12:45:21.529Z,13.26
2022-12-19T12:47:26.775Z,13.25
2022-12-19T12:49:41.192Z,13.20
2022-12-19T12:51:49.009Z,13.17
2022-12-19T12:54:00.773Z,13.15
2022-12-19T12:56:08.220Z,13.13
2022-12-19T12:59:04.134Z,13.15
2022-12-19T13:01:18.950Z,13.19
2022-12-19T13:03:29.125Z,13.21
2022-12-19T13:05:55.866Z,13.24
2022-12-19T13:08:01.021Z,13.24
2022-12-19T13:10:19.844Z,13.21
2022-12-19T13:12:45.875Z,13.21
2022-12-19T13:14:51.751Z,13.18
2022-12-19T13:16:57.602Z,13.18
2022-12-19T13:19:19.756Z,13.14
2022-12-19T13:21:26.720Z,13.11
2022-12-19T13:23:50.168Z,13.08
2022-12-19T13:25:57.145Z,13.08
2022-12-19T13:28:17.191Z,13.04
2022-12-19T13:30:22.370Z,13.02
2022-12-19T13:32:29.698Z,13.01
2022-12-19T13:34:38.539Z,12.94
2022-12-19T13:39:59.499Z,12.83
2022-12-19T13:40:00.348Z,12.56
2022-12-19T13:42:26.846Z,12.33
2022-12-19T13:44:33.305Z,12.10
2022-12-19T13:46:41.898Z,11.92
2022-12-19T13:48:49.965Z,11.75
2022-12-19T13:50:54.810Z,11.59
2022-12-19T13:53:00.882Z,11.45
2022-12-19T13:55:05.118Z,11.34
2022-12-19T13:57:23.646Z,11.27
2022-12-19T13:59:30.533Z,11.23
2022-12-19T14:01:37.519Z,11.18
2022-12-19T14:03:44.942Z,11.13
2022-12-19T14:06:15.827Z,11.06
2022-12-19T14:08:20.962Z,10.98
2022-12-19T14:11:38.927Z,10.93
2022-12-19T14:13:59.120Z,10.88
2022-12-19T14:15:40.903Z,10.87
2022-12-19T14:17:50.362Z,10.82
2022-12-19T14:21:39.603Z,10.79
2022-12-19T14:22:27.343Z,10.79
2022-12-19T14:24:32.561Z,10.78
2022-12-19T14:28:26.610Z,10.76
2022-12-19T14:29:08.552Z,10.74
2022-12-19T14:31:16.114Z,10.69
2022-12-19T14:33:45.855Z,10.62
2022-12-19T14:36:10.095Z,10.57
2022-12-19T14:39:23.220Z,10.55
2022-12-19T14:41:08.493Z,10.55
2022-12-19T14:43:59.031Z,10.50
2022-12-19T14:54:04.970Z,10.44
2022-12-19T14:54:11.820Z,10.46
2022-12-19T14:54:40.194Z,10.41
2022-12-19T14:55:08.285Z,10.39
2022-12-19T14:56:59.126Z,10.32
2022-12-19T14:59:05.184Z,10.32
2022-12-19T15:01:24.603Z,10.27
2022-12-19T15:03:33.442Z,10.22
2022-12-19T15:05:37.934Z,10.19
2022-12-19T15:07:45.757Z,10.16
2022-12-19T15:11:04.817Z,10.12
2022-12-19T15:14:03.995Z,10.06
2022-12-19T15:15:20.396Z,10.02
2022-12-19T15:17:26.337Z,10.02
2022-12-19T15:19:30.558Z,10.01
2022-12-19T15:21:34.397Z,10.00
2022-12-19T15:23:37.998Z,10.00
2022-12-19T15:26:03.233Z,9.96
2022-12-19T15:28:14.849Z,9.95
2022-12-19T15:30:20.638Z,9.93
2022-12-19T15:32:24.338Z,9.93
2022-12-19T15:34:44.432Z,9.91
2022-12-19T15:36:50.653Z,9.92
2022-12-19T15:38:54.677Z,9.90
2022-12-19T15:40:59.752Z,9.88
2022-12-19T15:43:03.438Z,9.82
2022-12-19T15:45:08.125Z,9.79
2022-12-19T15:47:18.388Z,9.77
2022-12-19T15:49:23.298Z,9.73
2022-12-19T15:51:26.863Z,9.67
2022-12-19T15:53:40.698Z,9.63
2022-12-19T15:55:45.149Z,9.61
2022-12-19T15:57:53.963Z,9.60
2022-12-19T15:59:59.505Z,9.60
2022-12-19T16:02:04.446Z,9.57
2022-12-19T16:04:14.026Z,9.58
2022-12-19T16:06:18.159Z,9.58
2022-12-19T16:08:25.487Z,9.60
2022-12-19T16:10:28.924Z,9.60
2022-12-19T16:12:38.209Z,9.59
2022-12-19T16:14:43.047Z,9.48
2022-12-19T16:16:55.783Z,9.44
2022-12-19T16:18:59.538Z,9.40
2022-12-19T16:21:03.042Z,9.38
2022-12-19T16:23:09.380Z,9.31
2022-12-19T16:25:14.266Z,9.24
2022-12-19T16:27:25.378Z,9.20
2022-12-19T16:29:32.131Z,9.16
2022-12-19T16:31:37.617Z,9.14
2022-12-19T16:33:41.987Z,9.12
2022-12-19T16:38:09.832Z,9.07
2022-12-19T16:40:18.334Z,9.05
2022-12-19T16:42:23.871Z,9.03
2022-12-19T16:44:27.993Z,9.01
2022-12-19T16:46:32.280Z,9.01
2022-12-19T16:48:38.189Z,9.01
2022-12-19T16:50:42.164Z,8.98
2022-12-19T16:52:46.507Z,8.94
2022-12-19T16:54:51.447Z,8.89
2022-12-19T16:56:56.150Z,8.87
2022-12-19T16:59:03.523Z,8.88
2022-12-19T17:01:11.447Z,8.88
2022-12-19T17:03:29.185Z,8.88
2022-12-19T17:05:35.599Z,8.88
2022-12-19T17:07:39.762Z,8.88
2022-12-19T17:09:43.681Z,8.88
2022-12-19T17:11:50.340Z,8.86
2022-12-19T17:13:58.736Z,8.86
2022-12-19T17:16:05.726Z,8.80
2022-12-19T17:18:16.063Z,8.79
2022-12-19T17:20:22.784Z,8.78
2022-12-19T17:22:27.890Z,8.77
2022-12-19T17:24:31.981Z,8.76
2022-12-19T17:26:36.621Z,8.75
2022-12-19T17:28:40.513Z,8.71
2022-12-19T17:30:49.828Z,8.66
2022-12-19T17:32:56.608Z,8.64
2022-12-19T17:35:00.741Z,8.60
2022-12-19T17:37:06.897Z,8.57
2022-12-19T17:39:20.634Z,8.54
2022-12-19T17:41:25.827Z,8.50
2022-12-19T17:43:29.646Z,8.40
2022-12-19T17:45:36.031Z,8.33
2022-12-19T17:47:40.545Z,8.28
2022-12-19T17:49:44.854Z,8.25
2022-12-19T17:51:52.459Z,8.26
2022-12-19T17:53:56.945Z,8.27
2022-12-19T17:56:02.410Z,8.28
2022-12-19T17:58:07.918Z,8.29
2022-12-19T18:00:13.041Z,8.33
2022-12-19T18:02:22.511Z,8.38
2022-12-19T18:04:30.321Z,8.42
2022-12-19T18:06:34.979Z,8.43
2022-12-19T18:08:38.992Z,8.44
2022-12-19T18:10:42.428Z,8.46
2022-12-19T18:12:47.874Z,8.50
2022-12-19T18:14:52.104Z,8.50
2022-12-19T18:16:56.341Z,8.48
2022-12-19T18:19:00.397Z,8.42
2022-12-19T18:21:06.655Z,8.39
2022-12-19T18:23:16.875Z,8.36
2022-12-19T18:25:24.195Z,8.33
2022-12-19T18:27:28.710Z,8.29
2022-12-19T18:29:35.121Z,8.25
2022-12-19T18:31:46.484Z,8.21
2022-12-19T18:34:02.061Z,8.17
2022-12-19T18:36:17.542Z,8.10
2022-12-19T18:38:23.724Z,8.06
2022-12-19T18:40:31.630Z,8.03
2022-12-19T18:42:36.530Z,7.99
2022-12-19T18:44:42.007Z,7.97
2022-12-19T18:46:46.565Z,7.93
2022-12-19T18:48:50.953Z,7.90
2022-12-19T18:50:56.977Z,7.87
2022-12-19T18:53:02.276Z,7.86
2022-12-19T18:55:15.899Z,7.83
2022-12-19T18:57:19.603Z,7.80
2022-12-19T18:59:23.878Z,7.76
2022-12-19T19:01:32.343Z,7.76
2022-12-19T19:03:42.451Z,7.73
2022-12-19T19:05:47.574Z,7.71
2022-12-19T19:07:57.269Z,7.69
2022-12-19T19:10:01.303Z,7.66
2022-12-19T19:12:24.171Z,7.59
2022-12-19T19:14:28.113Z,7.56
2022-12-19T19:16:34.901Z,7.56
2022-12-19T19:18:41.992Z,7.55
2022-12-19T19:20:48.485Z,7.54
2022-12-19T19:22:54.426Z,7.54
2022-12-19T19:24:59.905Z,7.54
2022-12-19T19:27:03.944Z,7.52
2022-12-19T19:29:08.157Z,7.52
2022-12-19T19:31:16.348Z,7.53
2022-12-19T19:33:26.373Z,7.54
2022-12-19T19:35:30.687Z,7.54
2022-12-19T19:37:36.005Z,7.50
2022-12-19T19:39:40.892Z,7.49
2022-12-19T19:41:45.032Z,7.47
2022-12-19T19:43:49.805Z,7.43
2022-12-19T19:45:54.980Z,7.40
2022-12-19T19:48:00.224Z,7.35
2022-12-19T19:50:06.891Z,7.36
2022-12-19T19:52:11.025Z,7.35
2022-12-19T19:54:16.230Z,7.36
2022-12-19T19:56:20.675Z,7.31
2022-12-19T19:58:25.365Z,7.29
2022-12-19T20:00:29.578Z,7.26
2022-12-19T20:02:35.082Z,7.23
2022-12-19T20:04:40.100Z,7.22
2022-12-19T20:06:46.139Z,7.21
2022-12-19T20:08:51.063Z,7.20
2022-12-19T20:10:56.932Z,7.19
2022-12-19T20:13:02.177Z,7.21
2022-12-19T20:15:09.017Z,7.23
2022-12-19T20:17:14.429Z,7.24
2022-12-19T20:19:18.789Z,7.25
2022-12-19T20:21:25.125Z,7.25
2022-12-19T20:23:31.967Z,7.26
2022-12-19T20:25:40.009Z,7.26
2022-12-19T20:27:44.241Z,7.24
2022-12-19T20:29:48.631Z,7.24
2022-12-19T20:31:53.700Z,7.21
2022-12-19T20:33:59.711Z,7.19
2022-12-19T20:36:07.732Z,7.17
2022-12-19T20:38:12.551Z,7.17
2022-12-19T20:40:18.770Z,7.16
2022-12-19T20:42:22.951Z,7.16
2022-12-19T20:44:27.143Z,7.15
2022-12-19T20:46:31.698Z,7.15
2022-12-19T20:48:36.894Z,7.16
2022-12-19T20:50:43.426Z,7.17
2022-12-19T20:52:48.273Z,7.19
2022-12-19T20:55:12.012Z,7.16
2022-12-19T20:57:17.639Z,7.17
2022-12-19T20:59:22.245Z,7.16
2022-12-19T21:01:27.562Z,7.18
2022-12-19T21:03:32.114Z,7.19
2022-12-19T21:05:39.425Z,7.19
2022-12-19T21:07:43.396Z,7.19
2022-12-19T21:09:50.578Z,7.19
2022-12-19T21:11:55.330Z,7.18
2022-12-19T21:14:01.635Z,7.16
2022-12-19T21:16:09.207Z,7.16
2022-12-19T21:18:25.631Z,7.16
2022-12-19T21:20:34.338Z,7.17
2022-12-19T21:22:38.896Z,7.19
2022-12-19T21:24:43.274Z,7.21
2022-12-19T21:26:57.766Z,7.19
2022-12-19T21:29:05.402Z,7.18
2022-12-19T21:31:15.610Z,7.17
2022-12-19T21:33:20.413Z,7.17
2022-12-19T21:35:24.969Z,7.15
2022-12-19T21:37:28.975Z,7.15
2022-12-19T21:39:33.387Z,7.13
2022-12-19T21:41:38.137Z,7.13
2022-12-19T21:43:45.158Z,7.11
2022-12-19T21:45:51.189Z,7.10
2022-12-19T21:47:55.397Z,7.11
2022-12-19T21:49:59.796Z,7.14
2022-12-19T21:52:04.604Z,7.13
2022-12-19T21:54:09.935Z,7.13
2022-12-19T21:56:25.164Z,7.12
2022-12-19T21:58:29.847Z,7.13
2022-12-19T22:00:34.122Z,7.13
2022-12-19T22:02:50.593Z,7.09
2022-12-19T22:05:05.311Z,7.07
2022-12-19T22:07:10.583Z,7.06
2022-12-19T22:09:17.357Z,7.05
2022-12-19T22:11:24.148Z,7.05
2022-12-19T22:13:29.149Z,7.04
2022-12-19T22:15:33.704Z,7.03
2022-12-19T22:17:39.518Z,7.03
2022-12-19T22:19:44.120Z,7.05
2022-12-19T22:21:49.550Z,7.07
2022-12-19T22:23:54.166Z,7.08
2022-12-19T22:26:06.008Z,7.08
2022-12-19T22:28:11.503Z,7.08
2022-12-19T22:30:17.477Z,7.07
2022-12-19T22:32:21.720Z,7.07
2022-12-19T22:34:27.607Z,7.07
2022-12-19T22:36:34.031Z,7.09
2022-12-19T22:38:38.458Z,7.12
2022-12-19T22:40:43.044Z,7.10
2022-12-19T22:42:48.519Z,7.11
2022-12-19T22:44:55.032Z,7.12
2022-12-19T22:46:59.279Z,7.12
2022-12-19T22:49:06.450Z,7.15
2022-12-19T22:51:14.155Z,7.15
2022-12-19T22:53:18.771Z,7.16
2022-12-19T22:55:23.184Z,7.19
2022-12-19T22:57:28.091Z,7.20
2022-12-19T22:59:33.350Z,7.22
2022-12-19T23:01:40.112Z,7.23
2022-12-19T23:03:45.337Z,7.26
2022-12-19T23:05:52.078Z,7.28
2022-12-19T23:07:58.703Z,7.30
2022-12-19T23:10:03.757Z,7.31
2022-12-19T23:12:08.567Z,7.32
2022-12-19T23:14:16.787Z,7.32
2022-12-19T23:16:21.474Z,7.33
2022-12-19T23:18:26.222Z,7.34
2022-12-19T23:20:30.953Z,7.33
2022-12-19T23:22:35.017Z,7.36
2022-12-19T23:24:41.434Z,7.37
2022-12-19T23:26:46.383Z,7.36
2022-12-19T23:28:57.328Z,7.37
2022-12-19T23:31:05.510Z,7.37
2022-12-19T23:33:09.740Z,7.37
2022-12-19T23:35:14.825Z,7.38
2022-12-19T23:37:19.015Z,7.39
2022-12-19T23:39:23.203Z,7.36
2022-12-19T23:41:28.820Z,7.37
2022-12-19T23:43:36.366Z,7.39
2022-12-19T23:45:40.899Z,7.39
2022-12-19T23:47:46.913Z,7.40
2022-12-19T23:49:51.909Z,7.40
2022-12-19T23:51:56.236Z,7.39
2022-12-19T23:54:01.341Z,7.39
2022-12-19T23:56:07.826Z,7.38
2022-12-19T23:58:19.188Z,7.39
